createdAt,value
2017-12-12T00:00:20.639Z,981.78
2017-12-12T00:01:20.657Z,981.79
2017-12-12T00:02:20.679Z,981.75
2017-12-12T00:03:20.691Z,981.74
2017-12-12T00:04:20.703Z,981.68
2017-12-12T00:05:20.720Z,981.75
2017-12-12T00:06:20.738Z,981.79
2017-12-12T00:07:20.764Z,981.79
2017-12-12T00:08:20.771Z,981.81
2017-12-12T00:09:20.794Z,981.85
2017-12-12T00:10:20.804Z,981.84
2017-12-12T00:11:20.821Z,981.82
2017-12-12T00:12:20.844Z,981.85
2017-12-12T00:13:20.857Z,981.87
2017-12-12T00:14:20.878Z,981.91
2017-12-12T00:16:20.908Z,981.94
2017-12-12T00:17:20.929Z,981.92
2017-12-12T00:18:20.944Z,981.97
2017-12-12T00:19:20.957Z,981.95
2017-12-12T00:20:20.980Z,981.96
2017-12-12T00:21:20.997Z,981.95
2017-12-12T00:22:21.016Z,981.97
2017-12-12T00:23:21.037Z,981.98
2017-12-12T00:24:21.053Z,981.98
2017-12-12T00:25:21.063Z,981.97
2017-12-12T00:26:21.088Z,981.96
2017-12-12T00:27:21.100Z,981.88
2017-12-12T00:28:21.122Z,981.85
2017-12-12T00:29:21.129Z,981.85
2017-12-12T00:31:21.164Z,981.93
2017-12-12T00:32:21.185Z,982.01
2017-12-12T00:33:21.197Z,982.09
2017-12-12T00:34:21.214Z,982.1
2017-12-12T00:35:21.236Z,982.13
2017-12-12T00:36:21.257Z,982.12
2017-12-12T00:37:21.276Z,982.17
2017-12-12T00:38:21.286Z,982.14
2017-12-12T00:39:21.304Z,982.15
2017-12-12T00:40:21.322Z,982.18
2017-12-12T00:41:21.341Z,982.22
2017-12-12T00:42:21.363Z,982.28
2017-12-12T00:43:21.370Z,982.25
2017-12-12T00:44:21.396Z,982.21
2017-12-12T00:45:21.406Z,982.2
2017-12-12T00:46:21.424Z,982.19
2017-12-12T00:47:21.445Z,982.21
2017-12-12T00:48:21.461Z,982.23
2017-12-12T00:49:21.478Z,982.17
2017-12-12T00:50:21.495Z,982.18
2017-12-12T00:51:21.509Z,982.18
2017-12-12T00:52:21.524Z,982.17
2017-12-12T00:53:21.542Z,982.27
2017-12-12T00:54:21.553Z,982.23
2017-12-12T00:55:21.572Z,982.28
2017-12-12T00:56:21.588Z,982.34
2017-12-12T00:57:21.606Z,982.38
2017-12-12T00:58:21.626Z,982.39
2017-12-12T00:59:21.643Z,982.44
2017-12-12T01:00:21.661Z,982.41
2017-12-12T01:01:21.683Z,982.35
2017-12-12T01:03:21.708Z,982.29
2017-12-12T01:04:21.731Z,982.27
2017-12-12T01:05:21.746Z,982.29
2017-12-12T01:06:21.769Z,982.29
2017-12-12T01:07:21.785Z,982.33
2017-12-12T01:08:21.803Z,982.33
2017-12-12T01:09:21.814Z,982.37
2017-12-12T01:10:21.826Z,982.36
2017-12-12T01:11:21.850Z,982.39
2017-12-12T01:12:21.869Z,982.37
2017-12-12T01:13:21.880Z,982.36
2017-12-12T01:14:21.900Z,982.36
2017-12-12T01:15:21.916Z,982.34
2017-12-12T01:16:21.933Z,982.41
2017-12-12T01:17:21.960Z,982.41
2017-12-12T01:19:21.986Z,982.42
2017-12-12T01:20:22.004Z,982.42
2017-12-12T01:21:22.024Z,982.36
2017-12-12T01:22:22.042Z,982.38
2017-12-12T01:23:22.052Z,982.43
2017-12-12T01:24:22.065Z,982.45
2017-12-12T01:25:22.094Z,982.51
2017-12-12T01:26:22.110Z,982.55
2017-12-12T01:27:22.123Z,982.56
2017-12-12T01:28:22.138Z,982.51
2017-12-12T01:29:22.151Z,982.48
2017-12-12T01:30:22.173Z,982.45
2017-12-12T01:31:22.189Z,982.5
2017-12-12T01:32:22.205Z,982.46
2017-12-12T01:33:22.220Z,982.48
2017-12-12T01:35:22.256Z,982.48
2017-12-12T01:36:22.274Z,982.5
2017-12-12T01:37:22.287Z,982.48
2017-12-12T01:38:22.309Z,982.5
2017-12-12T01:39:22.324Z,982.47
2017-12-12T01:40:22.346Z,982.42
2017-12-12T01:41:22.366Z,982.47
2017-12-12T01:42:22.376Z,982.41
2017-12-12T01:43:22.390Z,982.44
2017-12-12T01:44:22.414Z,982.45
2017-12-12T01:45:22.433Z,982.39
2017-12-12T01:46:22.451Z,982.44
2017-12-12T01:47:22.463Z,982.36
2017-12-12T01:48:22.476Z,982.31
2017-12-12T01:49:22.499Z,982.3
2017-12-12T01:51:22.526Z,982.36
2017-12-12T01:52:22.555Z,982.41
2017-12-12T01:53:22.566Z,982.39
2017-12-12T01:54:22.583Z,982.4
2017-12-12T01:55:22.599Z,982.43
2017-12-12T01:56:22.613Z,982.49
2017-12-12T01:57:22.633Z,982.5
2017-12-12T01:58:22.651Z,982.52
2017-12-12T01:59:22.668Z,982.48
2017-12-12T02:00:22.691Z,982.47
2017-12-12T02:01:22.697Z,982.45
2017-12-12T02:02:22.715Z,982.4
2017-12-12T02:03:22.733Z,982.41
2017-12-12T02:04:22.755Z,982.43
2017-12-12T02:06:22.785Z,982.37
2017-12-12T02:07:22.806Z,982.38
2017-12-12T02:08:22.829Z,982.31
2017-12-12T02:09:22.843Z,982.3
2017-12-12T02:10:22.853Z,982.32
2017-12-12T02:11:22.876Z,982.28
2017-12-12T02:12:22.892Z,982.32
2017-12-12T02:13:22.908Z,982.33
2017-12-12T02:14:22.927Z,982.33
2017-12-12T02:15:22.944Z,982.27
2017-12-12T02:16:22.969Z,982.36
2017-12-12T02:17:22.978Z,982.36
2017-12-12T02:18:22.996Z,982.4
2017-12-12T02:19:23.011Z,982.46
2017-12-12T02:20:23.031Z,982.51
2017-12-12T02:21:23.049Z,982.54
2017-12-12T02:22:23.064Z,982.49
2017-12-12T02:23:23.079Z,982.53
2017-12-12T02:24:23.158Z,982.42
2017-12-12T02:25:23.110Z,982.33
2017-12-12T02:26:23.126Z,982.3
2017-12-12T02:27:23.144Z,982.36
2017-12-12T02:28:23.165Z,982.44
2017-12-12T02:29:23.177Z,982.45
2017-12-12T02:30:23.206Z,982.45
2017-12-12T02:31:23.224Z,982.48
2017-12-12T02:32:23.231Z,982.53
2017-12-12T02:33:23.253Z,982.51
2017-12-12T02:34:23.272Z,982.56
2017-12-12T02:35:23.285Z,982.55
2017-12-12T02:36:23.308Z,982.62
2017-12-12T02:38:23.337Z,982.55
2017-12-12T02:39:23.361Z,982.52
2017-12-12T02:40:23.376Z,982.45
2017-12-12T02:41:23.390Z,982.45
2017-12-12T02:42:23.408Z,982.48
2017-12-12T02:43:23.438Z,982.5
2017-12-12T02:44:23.438Z,982.52
2017-12-12T02:45:23.463Z,982.57
2017-12-12T02:46:23.481Z,982.61
2017-12-12T02:47:23.492Z,982.57
2017-12-12T02:48:23.513Z,982.65
2017-12-12T02:49:23.528Z,982.68
2017-12-12T02:50:23.545Z,982.64
2017-12-12T02:51:23.565Z,982.68
2017-12-12T02:52:23.576Z,982.74
2017-12-12T02:54:23.613Z,982.7
2017-12-12T02:55:23.633Z,982.71
2017-12-12T02:56:23.652Z,982.77
2017-12-12T02:57:23.659Z,982.78
2017-12-12T02:58:23.685Z,982.72
2017-12-12T02:59:23.702Z,982.73
2017-12-12T03:00:23.723Z,982.73
2017-12-12T03:01:23.737Z,982.71
2017-12-12T03:02:23.744Z,982.74
2017-12-12T03:03:23.766Z,982.75
2017-12-12T03:04:23.785Z,982.84
2017-12-12T03:05:23.795Z,982.82
2017-12-12T03:06:23.812Z,982.81
2017-12-12T03:07:23.834Z,982.78
2017-12-12T03:08:23.865Z,982.8
2017-12-12T03:10:23.891Z,982.8
2017-12-12T03:11:23.906Z,982.82
2017-12-12T03:12:23.923Z,982.71
2017-12-12T03:13:23.943Z,982.66
2017-12-12T03:14:23.957Z,982.64
2017-12-12T03:15:23.967Z,982.59
2017-12-12T03:16:23.991Z,982.61
2017-12-12T03:17:24.011Z,982.65
2017-12-12T03:18:24.030Z,982.67
2017-12-12T03:19:24.042Z,982.64
2017-12-12T03:20:24.062Z,982.69
2017-12-12T03:21:24.070Z,982.69
2017-12-12T03:22:24.088Z,982.67
2017-12-12T03:23:24.116Z,982.67
2017-12-12T03:24:24.130Z,982.71
2017-12-12T03:26:24.162Z,982.78
2017-12-12T03:27:24.181Z,982.72
2017-12-12T03:28:24.196Z,982.76
2017-12-12T03:29:24.215Z,982.73
2017-12-12T03:30:24.237Z,982.82
2017-12-12T03:31:24.244Z,982.8
2017-12-12T03:32:24.267Z,982.8
2017-12-12T03:33:24.288Z,982.78
2017-12-12T03:34:24.300Z,982.79
2017-12-12T03:35:24.322Z,982.92
2017-12-12T03:36:24.336Z,982.91
2017-12-12T03:37:24.356Z,982.91
2017-12-12T03:38:24.369Z,982.86
2017-12-12T03:39:24.393Z,982.89
2017-12-12T03:41:24.416Z,982.86
2017-12-12T03:42:24.434Z,982.93
2017-12-12T03:43:24.453Z,982.94
2017-12-12T03:44:24.472Z,983.01
2017-12-12T03:45:24.497Z,982.99
2017-12-12T03:46:24.512Z,983.06
2017-12-12T03:47:24.528Z,983.11
2017-12-12T03:48:24.538Z,983.14
2017-12-12T03:49:24.557Z,983.12
2017-12-12T03:50:24.570Z,983.07
2017-12-12T03:51:24.599Z,983.1
2017-12-12T03:52:24.612Z,983.15
2017-12-12T03:53:24.628Z,983.17
2017-12-12T03:54:24.645Z,983.18
2017-12-12T03:55:24.668Z,983.14
2017-12-12T03:56:24.680Z,983.1
2017-12-12T03:57:24.699Z,983.2
2017-12-12T03:58:24.716Z,983.27
2017-12-12T03:59:24.737Z,983.23
2017-12-12T04:00:24.743Z,983.17
2017-12-12T04:01:24.761Z,983.12
2017-12-12T04:02:24.789Z,983.17
2017-12-12T04:03:24.806Z,983.12
2017-12-12T04:04:24.824Z,983.07
2017-12-12T04:05:24.836Z,983.16
2017-12-12T04:06:24.849Z,983.16
2017-12-12T04:07:24.866Z,983.13
2017-12-12T04:08:24.883Z,983.14
2017-12-12T04:09:24.905Z,983.08
2017-12-12T04:10:24.924Z,982.99
2017-12-12T04:11:24.938Z,983.03
2017-12-12T04:13:24.969Z,982.96
2017-12-12T04:14:24.991Z,982.92
2017-12-12T04:15:25.011Z,982.94
2017-12-12T04:16:25.026Z,983.02
2017-12-12T04:17:25.048Z,983.01
2017-12-12T04:18:25.067Z,983.09
2017-12-12T04:19:25.077Z,983.19
2017-12-12T04:20:25.094Z,983.24
2017-12-12T04:21:25.112Z,983.27
2017-12-12T04:22:25.126Z,983.35
2017-12-12T04:23:25.154Z,983.4
2017-12-12T04:24:25.160Z,983.49
2017-12-12T04:25:25.185Z,983.52
2017-12-12T04:26:25.205Z,983.48
2017-12-12T04:27:25.222Z,983.46
2017-12-12T04:29:25.258Z,983.46
2017-12-12T04:30:25.270Z,983.45
2017-12-12T04:31:25.289Z,983.51
2017-12-12T04:32:25.299Z,983.52
2017-12-12T04:33:25.323Z,983.53
2017-12-12T04:34:25.339Z,983.51
2017-12-12T04:35:25.355Z,983.57
2017-12-12T04:36:25.373Z,983.57
2017-12-12T04:37:25.390Z,983.7
2017-12-12T04:38:25.405Z,983.66
2017-12-12T04:39:25.425Z,983.74
2017-12-12T04:40:25.438Z,983.77
2017-12-12T04:41:25.458Z,983.81
2017-12-12T04:42:25.476Z,983.77
2017-12-12T04:43:25.501Z,983.82
2017-12-12T04:45:25.530Z,983.78
2017-12-12T04:46:25.548Z,983.87
2017-12-12T04:47:25.565Z,983.88
2017-12-12T04:48:25.587Z,983.79
2017-12-12T04:49:25.598Z,983.77
2017-12-12T04:50:25.615Z,983.78
2017-12-12T04:51:25.629Z,983.78
2017-12-12T04:52:25.651Z,983.75
2017-12-12T04:53:25.668Z,983.73
2017-12-12T04:54:25.692Z,983.79
2017-12-12T04:55:25.698Z,983.78
2017-12-12T04:56:25.720Z,983.77
2017-12-12T04:57:25.740Z,983.78
2017-12-12T04:58:25.759Z,983.87
2017-12-12T04:59:25.778Z,983.97
2017-12-12T05:01:25.818Z,984.05
2017-12-12T05:02:25.831Z,984.03
2017-12-12T05:03:25.843Z,984.04
2017-12-12T05:04:25.867Z,984.14
2017-12-12T05:05:25.874Z,984.18
2017-12-12T05:06:25.902Z,984.1
2017-12-12T05:07:25.917Z,984.18
2017-12-12T05:08:25.929Z,984.19
2017-12-12T05:09:25.947Z,984.15
2017-12-12T05:10:25.961Z,984.11
2017-12-12T05:11:25.979Z,984.16
2017-12-12T05:12:25.995Z,984.11
2017-12-12T05:13:26.024Z,984.12
2017-12-12T05:14:26.036Z,984.07
2017-12-12T05:16:26.066Z,984.19
2017-12-12T05:17:26.091Z,984.23
2017-12-12T05:18:26.106Z,984.23
2017-12-12T05:19:26.124Z,984.22
2017-12-12T05:20:26.157Z,984.26
2017-12-12T05:21:26.154Z,984.27
2017-12-12T05:22:26.178Z,984.21
2017-12-12T05:23:26.189Z,984.26
2017-12-12T05:24:26.213Z,984.37
2017-12-12T05:25:26.239Z,984.35
2017-12-12T05:26:26.241Z,984.43
2017-12-12T05:27:26.266Z,984.32
2017-12-12T05:28:26.283Z,984.38
2017-12-12T05:29:26.304Z,984.37
2017-12-12T05:30:26.318Z,984.41
2017-12-12T05:31:26.339Z,984.49
2017-12-12T05:32:26.351Z,984.49
2017-12-12T05:33:26.364Z,984.5
2017-12-12T05:34:26.382Z,984.42
2017-12-12T05:35:26.399Z,984.49
2017-12-12T05:36:26.423Z,984.45
2017-12-12T05:37:26.439Z,984.58
2017-12-12T05:38:26.453Z,984.58
2017-12-12T05:39:26.469Z,984.58
2017-12-12T05:40:26.488Z,984.57
2017-12-12T05:41:26.506Z,984.57
2017-12-12T05:42:26.541Z,984.6
2017-12-12T05:43:26.544Z,984.51
2017-12-12T05:44:26.562Z,984.5
2017-12-12T05:45:26.586Z,984.6
2017-12-12T05:46:26.597Z,984.6
2017-12-12T05:48:26.634Z,984.63
2017-12-12T05:49:26.652Z,984.67
2017-12-12T05:50:26.665Z,984.76
2017-12-12T05:51:26.688Z,984.8
2017-12-12T05:52:26.705Z,984.81
2017-12-12T05:53:26.721Z,984.79
2017-12-12T05:54:26.745Z,984.83
2017-12-12T05:55:26.762Z,984.88
2017-12-12T05:56:26.779Z,984.96
2017-12-12T05:57:26.786Z,984.95
2017-12-12T05:58:26.809Z,985.04
2017-12-12T05:59:26.826Z,985.04
2017-12-12T06:00:26.851Z,985.01
2017-12-12T06:01:26.867Z,985.04
2017-12-12T06:02:26.881Z,985.08
2017-12-12T06:04:26.915Z,985.1
2017-12-12T06:05:26.932Z,985.1
2017-12-12T06:06:26.951Z,985.1
2017-12-12T06:07:26.970Z,985.09
2017-12-12T06:08:26.981Z,985.07
2017-12-12T06:09:27.007Z,985.15
2017-12-12T06:10:27.016Z,985.28
2017-12-12T06:11:27.046Z,985.25
2017-12-12T06:12:27.058Z,985.3
2017-12-12T06:13:27.079Z,985.22
2017-12-12T06:14:27.098Z,985.29
2017-12-12T06:15:27.106Z,985.33
2017-12-12T06:16:27.226Z,985.26
2017-12-12T06:17:27.151Z,985.3
2017-12-12T06:18:27.164Z,985.32
2017-12-12T06:20:27.197Z,985.3
2017-12-12T06:21:27.217Z,985.33
2017-12-12T06:22:27.229Z,985.34
2017-12-12T06:23:27.246Z,985.31
2017-12-12T06:24:27.271Z,985.2
2017-12-12T06:25:27.296Z,985.31
2017-12-12T06:26:27.310Z,985.5
2017-12-12T06:27:27.327Z,985.48
2017-12-12T06:28:27.341Z,985.43
2017-12-12T06:29:27.361Z,985.5
2017-12-12T06:30:27.376Z,985.5
2017-12-12T06:31:27.388Z,985.53
2017-12-12T06:32:27.415Z,985.52
2017-12-12T06:33:27.442Z,985.61
2017-12-12T06:34:27.447Z,985.67
2017-12-12T06:36:27.488Z,985.74
2017-12-12T06:37:27.500Z,985.73
2017-12-12T06:38:27.511Z,985.71
2017-12-12T06:39:27.535Z,985.78
2017-12-12T06:40:27.551Z,985.82
2017-12-12T06:41:27.576Z,985.86
2017-12-12T06:42:27.593Z,985.84
2017-12-12T06:43:27.611Z,985.94
2017-12-12T06:44:27.620Z,985.98
2017-12-12T06:45:27.639Z,985.97
2017-12-12T06:46:27.660Z,986
2017-12-12T06:47:27.683Z,986.04
2017-12-12T06:48:27.692Z,986.09
2017-12-12T06:49:27.708Z,986.08
2017-12-12T06:51:27.743Z,986.04
2017-12-12T06:52:27.759Z,986.08
2017-12-12T06:53:27.781Z,986.07
2017-12-12T06:54:27.796Z,986.05
2017-12-12T06:55:27.814Z,986.2
2017-12-12T06:56:27.837Z,986.11
2017-12-12T06:57:27.853Z,986.26
2017-12-12T06:58:27.873Z,986.14
2017-12-12T06:59:27.884Z,986.29
2017-12-12T07:00:27.902Z,986.3
2017-12-12T07:01:27.926Z,986.32
2017-12-12T07:02:27.947Z,986.34
2017-12-12T07:03:27.965Z,986.46
2017-12-12T07:04:27.982Z,986.45
2017-12-12T07:05:28.000Z,986.45
2017-12-12T07:06:28.020Z,986.46
2017-12-12T07:07:28.040Z,986.52
2017-12-12T07:08:28.053Z,986.6
2017-12-12T07:09:28.073Z,986.58
2017-12-12T07:10:28.079Z,986.58
2017-12-12T07:11:28.106Z,986.65
2017-12-12T07:12:28.116Z,986.76
2017-12-12T07:13:28.144Z,986.63
2017-12-12T07:14:28.159Z,986.53
2017-12-12T07:15:28.178Z,986.73
2017-12-12T07:16:28.190Z,986.75
2017-12-12T07:17:28.210Z,986.46
2017-12-12T07:18:28.225Z,986.81
2017-12-12T07:19:28.243Z,986.79
2017-12-12T07:20:28.267Z,986.82
2017-12-12T07:21:28.277Z,986.85
2017-12-12T07:23:28.320Z,987.01
2017-12-12T07:24:28.340Z,986.87
2017-12-12T07:25:28.343Z,986.89
2017-12-12T07:26:28.369Z,986.91
2017-12-12T07:27:28.380Z,986.96
2017-12-12T07:28:28.402Z,986.96
2017-12-12T07:29:28.430Z,987.1
2017-12-12T07:30:28.432Z,987.14
2017-12-12T07:31:28.456Z,987.23
2017-12-12T07:32:28.472Z,987.16
2017-12-12T07:33:28.491Z,987.27
2017-12-12T07:34:28.512Z,987.28
2017-12-12T07:35:28.521Z,987.25
2017-12-12T07:36:28.549Z,987.33
2017-12-12T07:37:28.555Z,987.42
2017-12-12T07:39:28.598Z,987.2
2017-12-12T07:40:28.620Z,987.3
2017-12-12T07:41:28.627Z,987.36
2017-12-12T07:42:28.652Z,987.41
2017-12-12T07:43:28.663Z,987.41
2017-12-12T07:44:28.679Z,987.4
2017-12-12T07:45:28.708Z,987.45
2017-12-12T07:46:28.725Z,987.42
2017-12-12T07:47:28.877Z,987.54
2017-12-12T07:48:28.755Z,987.48
2017-12-12T07:49:28.771Z,987.58
2017-12-12T07:50:28.786Z,987.42
2017-12-12T07:51:28.809Z,987.48
2017-12-12T07:52:28.827Z,987.51
2017-12-12T07:53:28.843Z,987.65
2017-12-12T07:55:28.887Z,987.64
2017-12-12T07:56:28.907Z,987.67
2017-12-12T07:57:28.919Z,987.57
2017-12-12T07:58:28.928Z,987.68
2017-12-12T07:59:28.955Z,987.72
2017-12-12T08:00:28.966Z,987.71
2017-12-12T08:01:28.981Z,987.79
2017-12-12T08:02:29.003Z,987.71
2017-12-12T08:03:29.026Z,987.8
2017-12-12T08:04:29.032Z,987.89
2017-12-12T08:05:29.061Z,987.86
2017-12-12T08:06:29.074Z,987.91
2017-12-12T08:07:29.092Z,988.03
2017-12-12T08:08:29.104Z,987.93
2017-12-12T08:09:29.127Z,987.89
2017-12-12T08:11:29.155Z,988.08
2017-12-12T08:12:29.174Z,988.04
2017-12-12T08:13:29.198Z,988.01
2017-12-12T08:14:29.256Z,988.04
2017-12-12T08:15:29.230Z,988.11
2017-12-12T08:16:29.248Z,988.04
2017-12-12T08:17:29.266Z,988.08
2017-12-12T08:18:29.284Z,988.1
2017-12-12T08:19:29.296Z,988.01
2017-12-12T08:20:29.321Z,988.05
2017-12-12T08:21:29.338Z,988.08
2017-12-12T08:22:29.355Z,988.2
2017-12-12T08:23:29.372Z,988.19
2017-12-12T08:24:29.397Z,988.22
2017-12-12T08:26:29.521Z,988.18
2017-12-12T08:27:29.454Z,988.32
2017-12-12T08:28:29.464Z,988.26
2017-12-12T08:29:29.479Z,988.29
2017-12-12T08:30:29.496Z,988.37
2017-12-12T08:31:29.510Z,988.39
2017-12-12T08:32:29.537Z,988.35
2017-12-12T08:33:29.548Z,988.5
2017-12-12T08:34:29.567Z,988.51
2017-12-12T08:35:29.587Z,988.58
2017-12-12T08:36:29.607Z,988.54
2017-12-12T08:37:29.614Z,988.58
2017-12-12T08:38:29.642Z,988.74
2017-12-12T08:39:29.660Z,989.09
2017-12-12T08:40:29.673Z,988.95
2017-12-12T08:41:29.689Z,988.99
2017-12-12T08:42:29.701Z,989.14
2017-12-12T08:43:29.731Z,989.05
2017-12-12T08:44:29.747Z,989.18
2017-12-12T08:45:29.764Z,989.18
2017-12-12T08:46:29.775Z,989.22
2017-12-12T08:47:29.794Z,989.31
2017-12-12T08:48:29.817Z,989.31
2017-12-12T08:49:29.827Z,989.39
2017-12-12T08:50:29.847Z,989.46
2017-12-12T08:51:29.864Z,989.47
2017-12-12T08:52:29.879Z,989.53
2017-12-12T08:53:29.892Z,989.56
2017-12-12T08:54:29.914Z,989.57
2017-12-12T08:55:29.939Z,989.53
2017-12-12T08:56:29.945Z,989.65
2017-12-12T08:58:29.983Z,989.81
2017-12-12T08:59:30.007Z,989.8
2017-12-12T09:00:30.013Z,989.84
2017-12-12T09:01:30.036Z,989.92
2017-12-12T09:02:30.060Z,989.91
2017-12-12T09:03:30.072Z,989.84
2017-12-12T09:04:30.093Z,990.05
2017-12-12T09:05:30.098Z,989.97
2017-12-12T09:06:30.122Z,990.02
2017-12-12T09:07:30.142Z,990.12
2017-12-12T09:08:30.165Z,990.18
2017-12-12T09:09:30.178Z,990.23
2017-12-12T09:10:30.191Z,990.3
2017-12-12T09:11:30.200Z,990.29
2017-12-12T09:12:30.229Z,990.37
2017-12-12T09:14:30.259Z,990.37
2017-12-12T09:15:30.267Z,990.6
2017-12-12T09:16:30.285Z,990.62
2017-12-12T09:17:30.312Z,990.66
2017-12-12T09:18:30.325Z,990.67
2017-12-12T09:19:30.342Z,990.78
2017-12-12T09:20:30.359Z,990.64
2017-12-12T09:21:30.378Z,990.79
2017-12-12T09:22:30.390Z,990.84
2017-12-12T09:23:30.407Z,990.83
2017-12-12T09:24:30.448Z,990.72
2017-12-12T09:25:30.441Z,990.99
2017-12-12T09:26:30.457Z,991.1
2017-12-12T09:27:30.470Z,990.92
2017-12-12T09:28:30.497Z,991.18
2017-12-12T09:30:30.519Z,991.33
2017-12-12T09:31:30.542Z,991.31
2017-12-12T09:32:30.560Z,991.48
2017-12-12T09:33:30.576Z,991.4
2017-12-12T09:34:30.590Z,991.49
2017-12-12T09:35:30.606Z,991.46
2017-12-12T09:36:30.625Z,991.7
2017-12-12T09:37:30.637Z,991.75
2017-12-12T09:38:30.661Z,991.53
2017-12-12T09:39:30.679Z,991.53
2017-12-12T09:40:30.706Z,991.62
2017-12-12T09:41:30.705Z,991.61
2017-12-12T09:42:30.717Z,991.55
2017-12-12T09:43:30.745Z,991.55
2017-12-12T09:44:30.759Z,991.64
2017-12-12T09:46:30.783Z,991.54
2017-12-12T09:47:30.807Z,991.54
2017-12-12T09:48:30.820Z,991.41
2017-12-12T09:49:30.833Z,991.46
2017-12-12T09:50:30.849Z,991.46
2017-12-12T09:51:30.871Z,991.59
2017-12-12T09:52:30.887Z,991.58
2017-12-12T09:53:30.900Z,991.78
2017-12-12T09:54:30.933Z,991.63
2017-12-12T09:55:30.931Z,991.58
2017-12-12T09:56:30.946Z,991.66
2017-12-12T09:57:30.970Z,991.76
2017-12-12T09:58:30.987Z,991.8
2017-12-12T09:59:31.010Z,991.93
2017-12-12T10:01:31.037Z,991.82
2017-12-12T10:02:31.046Z,991.82
2017-12-12T10:03:31.069Z,991.91
2017-12-12T10:04:31.089Z,991.9
2017-12-12T10:05:31.096Z,991.94
2017-12-12T10:06:31.131Z,992.23
2017-12-12T10:07:31.234Z,992.4
2017-12-12T10:08:31.144Z,992.15
2017-12-12T10:09:31.161Z,992.25
2017-12-12T10:10:31.178Z,992.35
2017-12-12T10:11:31.198Z,992.19
2017-12-12T10:12:31.220Z,992.17
2017-12-12T10:13:31.231Z,992.32
2017-12-12T10:14:31.249Z,992.34
2017-12-12T10:15:31.262Z,992.28
2017-12-12T10:16:31.286Z,992.48
2017-12-12T10:17:31.290Z,992.38
2017-12-12T10:18:31.308Z,992.49
2017-12-12T10:19:31.330Z,992.31
2017-12-12T10:20:31.340Z,992.42
2017-12-12T10:21:31.360Z,992.43
2017-12-12T10:22:31.379Z,992.38
2017-12-12T10:23:31.394Z,992.51
2017-12-12T10:24:31.410Z,992.51
2017-12-12T10:25:31.427Z,992.55
2017-12-12T10:26:31.447Z,992.6
2017-12-12T10:27:31.464Z,992.46
2017-12-12T10:28:31.480Z,992.58
2017-12-12T10:29:31.496Z,992.31
2017-12-12T10:30:31.508Z,992.63
2017-12-12T10:31:31.520Z,992.53
2017-12-12T10:33:31.549Z,992.61
2017-12-12T10:34:31.567Z,992.73
2017-12-12T10:35:31.587Z,992.69
2017-12-12T10:36:31.603Z,992.68
2017-12-12T10:37:31.614Z,992.77
2017-12-12T10:38:31.641Z,992.89
2017-12-12T10:39:31.653Z,992.65
2017-12-12T10:40:31.668Z,992.81
2017-12-12T10:41:31.686Z,992.89
2017-12-12T10:42:31.704Z,992.79
2017-12-12T10:43:31.772Z,993.03
2017-12-12T10:44:31.727Z,993.05
2017-12-12T10:45:31.747Z,993.1
2017-12-12T10:46:31.769Z,993.14
2017-12-12T10:47:31.780Z,993.19
2017-12-12T10:49:31.813Z,993.21
2017-12-12T10:50:31.834Z,993.3
2017-12-12T10:51:31.850Z,993.23
2017-12-12T10:52:31.862Z,993.36
2017-12-12T10:53:31.881Z,993.38
2017-12-12T10:54:31.889Z,993.31
2017-12-12T10:55:31.915Z,993.33
2017-12-12T10:56:31.920Z,993.4
2017-12-12T10:57:31.947Z,993.5
2017-12-12T10:58:31.957Z,993.41
2017-12-12T10:59:31.973Z,993.45
2017-12-12T11:00:31.995Z,993.42
2017-12-12T11:01:32.000Z,993.51
2017-12-12T11:02:32.017Z,993.53
2017-12-12T11:03:32.034Z,993.53
2017-12-12T11:05:32.075Z,993.63
2017-12-12T11:06:32.080Z,993.78
2017-12-12T11:07:32.097Z,993.65
2017-12-12T11:08:32.118Z,993.74
2017-12-12T11:09:32.128Z,993.72
2017-12-12T11:10:32.156Z,993.7
2017-12-12T11:11:32.167Z,993.72
2017-12-12T11:12:32.183Z,993.74
2017-12-12T11:13:32.193Z,993.88
2017-12-12T11:14:32.219Z,993.98
2017-12-12T11:15:32.230Z,993.89
2017-12-12T11:16:32.240Z,994.16
2017-12-12T11:17:32.261Z,994.16
2017-12-12T11:18:32.285Z,994.13
2017-12-12T11:19:32.289Z,994
2017-12-12T11:21:32.326Z,994.17
2017-12-12T11:22:32.343Z,994.19
2017-12-12T11:23:32.359Z,994.22
2017-12-12T11:24:32.372Z,994.18
2017-12-12T11:25:32.397Z,994.29
2017-12-12T11:26:32.407Z,994.27
2017-12-12T11:27:32.417Z,994.26
2017-12-12T11:28:32.432Z,994.3
2017-12-12T11:29:32.458Z,994.47
2017-12-12T11:30:32.468Z,994.41
2017-12-12T11:31:32.491Z,994.58
2017-12-12T11:32:32.502Z,994.62
2017-12-12T11:33:32.512Z,994.66
2017-12-12T11:34:32.529Z,994.45
2017-12-12T11:36:32.571Z,994.74
2017-12-12T11:37:32.580Z,994.76
2017-12-12T11:38:32.592Z,994.73
2017-12-12T11:39:32.617Z,994.89
2017-12-12T11:40:32.632Z,994.89
2017-12-12T11:41:32.644Z,994.84
2017-12-12T11:42:32.662Z,994.85
2017-12-12T11:43:32.671Z,994.9
2017-12-12T11:44:32.697Z,994.89
2017-12-12T11:45:32.708Z,995.05
2017-12-12T11:46:32.729Z,994.96
2017-12-12T11:47:32.740Z,995.02
2017-12-12T11:48:32.760Z,995.03
2017-12-12T11:49:32.773Z,995
2017-12-12T11:50:32.782Z,995
2017-12-12T11:51:32.799Z,995.06
2017-12-12T11:52:32.813Z,995.06
2017-12-12T11:53:32.841Z,995.17
2017-12-12T11:54:32.850Z,995.26
2017-12-12T11:55:32.865Z,995.18
2017-12-12T11:56:32.883Z,995.22
2017-12-12T11:57:32.899Z,995.14
2017-12-12T11:58:32.914Z,995.06
2017-12-12T11:59:32.930Z,995.1
2017-12-12T12:00:32.952Z,995.25
2017-12-12T12:01:32.967Z,995.27
2017-12-12T12:02:32.980Z,995.1
2017-12-12T12:03:32.995Z,995.25
2017-12-12T12:04:33.010Z,995.18
2017-12-12T12:05:33.021Z,995.18
2017-12-12T12:06:33.046Z,995.2
2017-12-12T12:08:33.078Z,995.36
2017-12-12T12:09:33.087Z,995.32
2017-12-12T12:10:33.110Z,995.31
2017-12-12T12:11:33.125Z,995.29
2017-12-12T12:12:33.142Z,995.29
2017-12-12T12:13:33.148Z,995.28
2017-12-12T12:14:33.162Z,995.5
2017-12-12T12:15:33.186Z,995.39
2017-12-12T12:16:33.199Z,995.31
2017-12-12T12:17:33.214Z,995.38
2017-12-12T12:18:33.225Z,995.33
2017-12-12T12:19:33.243Z,995.48
2017-12-12T12:20:33.268Z,995.57
2017-12-12T12:21:33.277Z,995.54
2017-12-12T12:22:33.299Z,995.64
2017-12-12T12:24:33.333Z,995.63
2017-12-12T12:25:33.338Z,995.62
2017-12-12T12:26:33.354Z,995.68
2017-12-12T12:27:33.376Z,995.67
2017-12-12T12:28:33.390Z,995.65
2017-12-12T12:29:33.410Z,995.62
2017-12-12T12:30:33.421Z,995.73
2017-12-12T12:31:33.437Z,995.6
2017-12-12T12:32:33.452Z,995.62
2017-12-12T12:33:33.471Z,995.66
2017-12-12T12:34:33.485Z,995.76
2017-12-12T12:35:33.500Z,995.72
2017-12-12T12:36:33.511Z,995.69
2017-12-12T12:37:33.534Z,995.71
2017-12-12T12:38:33.554Z,995.76
2017-12-12T12:40:33.575Z,995.71
2017-12-12T12:41:33.597Z,995.8
2017-12-12T12:42:33.608Z,995.87
2017-12-12T12:43:33.633Z,995.86
2017-12-12T12:44:33.646Z,995.97
2017-12-12T12:45:33.667Z,995.85
2017-12-12T12:46:33.672Z,995.71
2017-12-12T12:47:33.694Z,995.93
2017-12-12T12:48:33.713Z,995.85
2017-12-12T12:49:33.719Z,995.78
2017-12-12T12:50:33.740Z,995.89
2017-12-12T12:51:33.758Z,996
2017-12-12T12:52:33.774Z,995.87
2017-12-12T12:53:33.791Z,995.95
2017-12-12T12:54:33.806Z,995.93
2017-12-12T12:56:33.839Z,995.94
2017-12-12T12:57:33.851Z,995.96
2017-12-12T12:58:33.871Z,996.07
2017-12-12T12:59:33.879Z,996.03
2017-12-12T13:00:33.907Z,996.1
2017-12-12T13:01:33.912Z,996.15
2017-12-12T13:02:33.939Z,996.06
2017-12-12T13:03:33.955Z,996.22
2017-12-12T13:04:33.960Z,996.18
2017-12-12T13:05:33.975Z,996.27
2017-12-12T13:06:33.999Z,996.27
2017-12-12T13:07:34.015Z,996.37
2017-12-12T13:08:34.036Z,996.29
2017-12-12T13:09:34.050Z,996.3
2017-12-12T13:11:34.080Z,996.36
2017-12-12T13:12:34.095Z,996.37
2017-12-12T13:13:34.115Z,996.46